sensor_id;sensor_type;location;lat;lon;timestamp;P1;durP1;ratioP1;P2;durP2;ratioP2
76127;SDS011;64873;50.102;14.434;2023-04-01T00:01:42;3.95;;;0.80;;
76127;SDS011;64873;50.102;14.434;2023-04-01T00:04:08;7.82;;;0.98;;
76127;SDS011;64873;50.102;14.434;2023-04-01T00:06:33;4.53;;;1.08;;
76127;SDS011;64873;50.102;14.434;2023-04-01T00:08:58;3.55;;;0.85;;
76127;SDS011;64873;50.102;14.434;2023-04-01T00:11:24;2.58;;;1.02;;
76127;SDS011;64873;50.102;14.434;2023-04-01T00:13:52;4.00;;;0.88;;
76127;SDS011;64873;50.102;14.434;2023-04-01T00:16:17;2.60;;;0.70;;
76127;SDS011;64873;50.102;14.434;2023-04-01T00:18:43;3.33;;;0.95;;
76127;SDS011;64873;50.102;14.434;2023-04-01T00:21:09;4.03;;;0.98;;
76127;SDS011;64873;50.102;14.434;2023-04-01T00:23:34;3.63;;;1.02;;
76127;SDS011;64873;50.102;14.434;2023-04-01T00:26:00;4.20;;;1.08;;
76127;SDS011;64873;50.102;14.434;2023-04-01T00:28:27;2.95;;;0.73;;
76127;SDS011;64873;50.102;14.434;2023-04-01T00:30:52;2.92;;;0.85;;
76127;SDS011;64873;50.102;14.434;2023-04-01T00:33:18;1.95;;;0.93;;
76127;SDS011;64873;50.102;14.434;2023-04-01T00:35:44;3.38;;;0.82;;
76127;SDS011;64873;50.102;14.434;2023-04-01T00:38:09;3.50;;;0.70;;
76127;SDS011;64873;50.102;14.434;2023-04-01T00:40:43;3.17;;;0.80;;
76127;SDS011;64873;50.102;14.434;2023-04-01T00:43:14;3.25;;;1.00;;
76127;SDS011;64873;50.102;14.434;2023-04-01T00:45:45;2.55;;;0.80;;
76127;SDS011;64873;50.102;14.434;2023-04-01T00:48:26;3.22;;;0.82;;
76127;SDS011;64873;50.102;14.434;2023-04-01T00:51:14;3.25;;;0.95;;
76127;SDS011;64873;50.102;14.434;2023-04-01T00:53:44;3.80;;;0.77;;
76127;SDS011;64873;50.102;14.434;2023-04-01T00:58:54;4.13;;;0.95;;
76127;SDS011;64873;50.102;14.434;2023-04-01T01:01:25;5.07;;;0.80;;
76127;SDS011;64873;50.102;14.434;2023-04-01T01:03:51;2.78;;;0.77;;
76127;SDS011;64873;50.102;14.434;2023-04-01T01:19:49;2.13;;;0.60;;
76127;SDS011;64873;50.102;14.434;2023-04-01T01:25:18;2.30;;;0.95;;
76127;SDS011;64873;50.102;14.434;2023-04-01T01:28:29;1.77;;;0.68;;
76127;SDS011;64873;50.102;14.434;2023-04-01T01:30:46;3.15;;;0.80;;
76127;SDS011;64873;50.102;14.434;2023-04-01T01:33:49;7.35;;;1.08;;
76127;SDS011;64873;50.102;14.434;2023-04-01T01:36:51;1.98;;;0.70;;
76127;SDS011;64873;50.102;14.434;2023-04-01T01:39:21;4.07;;;1.02;;
76127;SDS011;64873;50.102;14.434;2023-04-01T01:41:55;1.75;;;0.80;;
76127;SDS011;64873;50.102;14.434;2023-04-01T01:44:22;1.75;;;0.75;;
76127;SDS011;64873;50.102;14.434;2023-04-01T01:46:51;2.25;;;0.60;;
76127;SDS011;64873;50.102;14.434;2023-04-01T01:49:16;2.00;;;0.65;;
76127;SDS011;64873;50.102;14.434;2023-04-01T01:51:44;3.83;;;0.85;;
76127;SDS011;64873;50.102;14.434;2023-04-01T01:54:13;2.58;;;0.70;;
76127;SDS011;64873;50.102;14.434;2023-04-01T01:56:39;1.95;;;0.70;;
76127;SDS011;64873;50.102;14.434;2023-04-01T01:59:08;4.43;;;0.70;;
76127;SDS011;64873;50.102;14.434;2023-04-01T02:01:37;3.78;;;1.10;;
76127;SDS011;64873;50.102;14.434;2023-04-01T02:04:07;2.38;;;0.70;;
76127;SDS011;64873;50.102;14.434;2023-04-01T02:06:35;4.63;;;0.90;;
76127;SDS011;64873;50.102;14.434;2023-04-01T02:09:05;3.95;;;0.80;;
76127;SDS011;64873;50.102;14.434;2023-04-01T02:11:51;4.68;;;1.00;;
76127;SDS011;64873;50.102;14.434;2023-04-01T02:14:24;3.80;;;1.10;;
76127;SDS011;64873;50.102;14.434;2023-04-01T02:16:57;1.58;;;0.50;;
76127;SDS011;64873;50.102;14.434;2023-04-01T02:19:31;2.30;;;0.80;;
76127;SDS011;64873;50.102;14.434;2023-04-01T02:22:01;2.65;;;0.85;;
76127;SDS011;64873;50.102;14.434;2023-04-01T02:24:30;5.32;;;1.35;;
76127;SDS011;64873;50.102;14.434;2023-04-01T02:26:59;5.35;;;1.00;;
76127;SDS011;64873;50.102;14.434;2023-04-01T02:29:25;2.95;;;0.80;;
76127;SDS011;64873;50.102;14.434;2023-04-01T02:31:50;3.92;;;0.90;;
76127;SDS011;64873;50.102;14.434;2023-04-01T02:34:18;4.68;;;1.17;;
76127;SDS011;64873;50.102;14.434;2023-04-01T02:36:44;2.08;;;0.93;;
76127;SDS011;64873;50.102;14.434;2023-04-01T02:39:11;2.25;;;0.80;;
76127;SDS011;64873;50.102;14.434;2023-04-01T02:41:38;2.40;;;0.80;;
76127;SDS011;64873;50.102;14.434;2023-04-01T02:44:05;4.32;;;0.85;;
76127;SDS011;64873;50.102;14.434;2023-04-01T02:46:32;2.53;;;0.63;;
76127;SDS011;64873;50.102;14.434;2023-04-01T02:48:57;3.33;;;0.90;;
76127;SDS011;64873;50.102;14.434;2023-04-01T02:51:23;3.90;;;1.00;;
76127;SDS011;64873;50.102;14.434;2023-04-01T02:53:48;3.70;;;0.80;;
76127;SDS011;64873;50.102;14.434;2023-04-01T02:56:14;4.35;;;0.82;;
76127;SDS011;64873;50.102;14.434;2023-04-01T02:58:39;2.80;;;0.77;;
76127;SDS011;64873;50.102;14.434;2023-04-01T03:01:05;5.03;;;1.08;;
76127;SDS011;64873;50.102;14.434;2023-04-01T03:03:30;4.88;;;0.93;;
76127;SDS011;64873;50.102;14.434;2023-04-01T03:05:56;2.20;;;0.70;;
76127;SDS011;64873;50.102;14.434;2023-04-01T03:08:23;3.65;;;0.90;;
76127;SDS011;64873;50.102;14.434;2023-04-01T03:10:49;4.18;;;0.80;;
76127;SDS011;64873;50.102;14.434;2023-04-01T03:13:14;2.47;;;0.77;;
76127;SDS011;64873;50.102;14.434;2023-04-01T03:15:40;3.28;;;0.80;;
76127;SDS011;64873;50.102;14.434;2023-04-01T03:18:05;1.58;;;0.50;;
76127;SDS011;64873;50.102;14.434;2023-04-01T03:20:30;4.00;;;0.90;;
76127;SDS011;64873;50.102;14.434;2023-04-01T03:22:56;3.38;;;1.20;;
76127;SDS011;64873;50.102;14.434;2023-04-01T03:25:22;6.85;;;1.23;;
76127;SDS011;64873;50.102;14.434;2023-04-01T03:27:47;3.92;;;1.02;;
76127;SDS011;64873;50.102;14.434;2023-04-01T03:30:13;2.25;;;0.70;;
76127;SDS011;64873;50.102;14.434;2023-04-01T03:32:38;4.43;;;0.82;;
76127;SDS011;64873;50.102;14.434;2023-04-01T03:35:03;2.10;;;0.70;;
76127;SDS011;64873;50.102;14.434;2023-04-01T03:37:30;4.03;;;0.70;;
76127;SDS011;64873;50.102;14.434;2023-04-01T03:39:55;3.45;;;0.90;;
76127;SDS011;64873;50.102;14.434;2023-04-01T03:42:21;2.85;;;0.77;;
76127;SDS011;64873;50.102;14.434;2023-04-01T03:44:46;3.40;;;0.90;;
76127;SDS011;64873;50.102;14.434;2023-04-01T03:47:12;5.28;;;0.82;;
76127;SDS011;64873;50.102;14.434;2023-04-01T03:49:37;3.70;;;0.70;;
76127;SDS011;64873;50.102;14.434;2023-04-01T03:52:02;2.92;;;0.70;;
76127;SDS011;64873;50.102;14.434;2023-04-01T03:54:28;1.40;;;0.70;;
76127;SDS011;64873;50.102;14.434;2023-04-01T03:56:53;4.72;;;0.80;;
76127;SDS011;64873;50.102;14.434;2023-04-01T03:59:20;5.28;;;0.90;;
76127;SDS011;64873;50.102;14.434;2023-04-01T04:01:46;2.63;;;0.73;;
76127;SDS011;64873;50.102;14.434;2023-04-01T04:04:12;3.38;;;0.70;;
76127;SDS011;64873;50.102;14.434;2023-04-01T04:06:38;3.55;;;1.00;;
76127;SDS011;64873;50.102;14.434;2023-04-01T04:09:03;3.72;;;1.00;;
76127;SDS011;64873;50.102;14.434;2023-04-01T04:11:29;3.28;;;0.98;;
76127;SDS011;64873;50.102;14.434;2023-04-01T04:13:56;5.18;;;0.98;;
76127;SDS011;64873;50.102;14.434;2023-04-01T04:16:21;4.60;;;1.25;;
76127;SDS011;64873;50.102;14.434;2023-04-01T04:18:47;2.95;;;0.98;;
76127;SDS011;64873;50.102;14.434;2023-04-01T04:21:12;5.30;;;1.00;;
76127;SDS011;64873;50.102;14.434;2023-04-01T04:23:40;7.97;;;1.10;;
76127;SDS011;64873;50.102;14.434;2023-04-01T04:26:07;4.68;;;1.20;;
76127;SDS011;64873;50.102;14.434;2023-04-01T04:28:34;3.70;;;0.75;;
76127;SDS011;64873;50.102;14.434;2023-04-01T04:31:00;3.25;;;1.10;;
76127;SDS011;64873;50.102;14.434;2023-04-01T04:33:25;5.50;;;1.15;;
76127;SDS011;64873;50.102;14.434;2023-04-01T04:35:51;4.30;;;1.02;;
76127;SDS011;64873;50.102;14.434;2023-04-01T04:38:20;2.65;;;0.90;;
76127;SDS011;64873;50.102;14.434;2023-04-01T04:40:46;3.67;;;0.98;;
76127;SDS011;64873;50.102;14.434;2023-04-01T04:43:12;2.65;;;1.00;;
76127;SDS011;64873;50.102;14.434;2023-04-01T04:45:39;6.30;;;0.93;;
76127;SDS011;64873;50.102;14.434;2023-04-01T04:48:06;4.82;;;0.90;;
76127;SDS011;64873;50.102;14.434;2023-04-01T04:50:33;6.18;;;1.20;;
76127;SDS011;64873;50.102;14.434;2023-04-01T04:52:58;6.57;;;1.00;;
76127;SDS011;64873;50.102;14.434;2023-04-01T04:55:24;3.03;;;1.00;;
76127;SDS011;64873;50.102;14.434;2023-04-01T04:57:49;5.63;;;1.48;;
76127;SDS011;64873;50.102;14.434;2023-04-01T05:00:15;2.58;;;0.90;;
76127;SDS011;64873;50.102;14.434;2023-04-01T05:02:40;7.85;;;1.23;;
76127;SDS011;64873;50.102;14.434;2023-04-01T05:05:06;2.67;;;0.80;;
76127;SDS011;64873;50.102;14.434;2023-04-01T05:07:32;5.50;;;0.98;;
76127;SDS011;64873;50.102;14.434;2023-04-01T05:09:58;3.75;;;1.52;;
76127;SDS011;64873;50.102;14.434;2023-04-01T05:12:24;2.95;;;1.00;;
76127;SDS011;64873;50.102;14.434;2023-04-01T05:14:49;6.03;;;1.20;;
76127;SDS011;64873;50.102;14.434;2023-04-01T05:17:15;4.80;;;0.95;;
76127;SDS011;64873;50.102;14.434;2023-04-01T05:19:40;5.40;;;1.08;;
76127;SDS011;64873;50.102;14.434;2023-04-01T05:22:06;4.00;;;1.30;;
76127;SDS011;64873;50.102;14.434;2023-04-01T05:24:32;7.65;;;1.52;;
76127;SDS011;64873;50.102;14.434;2023-04-01T05:26:58;6.65;;;1.40;;
76127;SDS011;64873;50.102;14.434;2023-04-01T05:29:24;2.72;;;1.00;;
76127;SDS011;64873;50.102;14.434;2023-04-01T05:31:50;3.15;;;1.05;;
76127;SDS011;64873;50.102;14.434;2023-04-01T05:34:16;4.50;;;1.13;;
76127;SDS011;64873;50.102;14.434;2023-04-01T05:36:42;6.78;;;1.30;;
76127;SDS011;64873;50.102;14.434;2023-04-01T05:39:08;4.93;;;1.30;;
76127;SDS011;64873;50.102;14.434;2023-04-01T05:41:34;3.30;;;1.00;;
76127;SDS011;64873;50.102;14.434;2023-04-01T05:44:01;2.17;;;0.95;;
76127;SDS011;64873;50.102;14.434;2023-04-01T05:46:26;8.57;;;1.73;;
76127;SDS011;64873;50.102;14.434;2023-04-01T05:48:51;4.25;;;1.13;;
76127;SDS011;64873;50.102;14.434;2023-04-01T05:51:17;2.30;;;1.10;;
76127;SDS011;64873;50.102;14.434;2023-04-01T05:53:42;2.70;;;1.13;;
76127;SDS011;64873;50.102;14.434;2023-04-01T05:56:08;2.53;;;0.90;;
76127;SDS011;64873;50.102;14.434;2023-04-01T05:58:37;5.78;;;1.00;;
76127;SDS011;64873;50.102;14.434;2023-04-01T06:01:03;3.78;;;1.13;;
76127;SDS011;64873;50.102;14.434;2023-04-01T06:03:33;3.08;;;0.98;;
76127;SDS011;64873;50.102;14.434;2023-04-01T06:05:59;2.55;;;0.90;;
76127;SDS011;64873;50.102;14.434;2023-04-01T06:08:26;5.38;;;1.30;;
76127;SDS011;64873;50.102;14.434;2023-04-01T06:13:42;3.55;;;1.00;;
76127;SDS011;64873;50.102;14.434;2023-04-01T06:27:45;3.05;;;1.17;;
76127;SDS011;64873;50.102;14.434;2023-04-01T06:52:02;2.92;;;0.90;;
76127;SDS011;64873;50.102;14.434;2023-04-01T06:54:31;2.70;;;0.80;;
76127;SDS011;64873;50.102;14.434;2023-04-01T06:59:57;3.92;;;0.90;;
76127;SDS011;64873;50.102;14.434;2023-04-01T07:05:38;2.88;;;0.77;;
76127;SDS011;64873;50.102;14.434;2023-04-01T07:08:06;4.43;;;1.10;;
76127;SDS011;64873;50.102;14.434;2023-04-01T07:13:04;2.55;;;0.95;;
76127;SDS011;64873;50.102;14.434;2023-04-01T07:15:39;3.33;;;1.00;;
76127;SDS011;64873;50.102;14.434;2023-04-01T07:18:30;4.20;;;0.90;;
76127;SDS011;64873;50.102;14.434;2023-04-01T07:20:59;3.58;;;1.05;;
76127;SDS011;64873;50.102;14.434;2023-04-01T07:23:28;2.40;;;0.85;;
76127;SDS011;64873;50.102;14.434;2023-04-01T07:26:06;5.65;;;1.38;;
76127;SDS011;64873;50.102;14.434;2023-04-01T07:28:44;2.90;;;0.88;;
76127;SDS011;64873;50.102;14.434;2023-04-01T07:41:34;6.00;;;1.02;;
76127;SDS011;64873;50.102;14.434;2023-04-01T07:54:21;3.55;;;1.00;;
76127;SDS011;64873;50.102;14.434;2023-04-01T07:57:30;3.03;;;1.05;;
76127;SDS011;64873;50.102;14.434;2023-04-01T08:00:19;5.30;;;1.30;;
76127;SDS011;64873;50.102;14.434;2023-04-01T08:05:47;2.00;;;0.65;;
76127;SDS011;64873;50.102;14.434;2023-04-01T08:11:25;1.80;;;0.70;;
76127;SDS011;64873;50.102;14.434;2023-04-01T08:17:12;2.85;;;0.90;;
76127;SDS011;64873;50.102;14.434;2023-04-01T08:20:22;2.47;;;0.75;;
76127;SDS011;64873;50.102;14.434;2023-04-01T08:22:55;6.07;;;1.08;;
76127;SDS011;64873;50.102;14.434;2023-04-01T08:25:27;1.92;;;0.75;;
76127;SDS011;64873;50.102;14.434;2023-04-01T08:27:57;3.40;;;0.93;;
76127;SDS011;64873;50.102;14.434;2023-04-01T08:30:43;2.42;;;0.80;;
76127;SDS011;64873;50.102;14.434;2023-04-01T08:33:28;1.38;;;0.65;;
76127;SDS011;64873;50.102;14.434;2023-04-01T08:36:03;4.68;;;1.48;;
76127;SDS011;64873;50.102;14.434;2023-04-01T08:38:36;3.33;;;0.80;;
76127;SDS011;64873;50.102;14.434;2023-04-01T08:44:19;7.40;;;1.20;;
76127;SDS011;64873;50.102;14.434;2023-04-01T08:58:43;3.50;;;0.77;;
76127;SDS011;64873;50.102;14.434;2023-04-01T09:01:36;3.70;;;0.90;;
76127;SDS011;64873;50.102;14.434;2023-04-01T09:09:20;4.70;;;0.90;;
76127;SDS011;64873;50.102;14.434;2023-04-01T09:28:28;5.05;;;1.08;;
76127;SDS011;64873;50.102;14.434;2023-04-01T09:31:18;7.85;;;2.30;;
76127;SDS011;64873;50.102;14.434;2023-04-01T09:36:44;11.55;;;2.63;;
76127;SDS011;64873;50.102;14.434;2023-04-01T09:43:25;8.70;;;2.00;;
76127;SDS011;64873;50.102;14.434;2023-04-01T09:51:17;4.63;;;1.50;;
76127;SDS011;64873;50.102;14.434;2023-04-01T09:56:57;6.40;;;1.60;;
76127;SDS011;64873;50.102;14.434;2023-04-01T10:16:07;3.40;;;1.02;;
76127;SDS011;64873;50.102;14.434;2023-04-01T10:18:56;3.67;;;0.90;;
76127;SDS011;64873;50.102;14.434;2023-04-01T10:38:29;1.58;;;0.75;;
76127;SDS011;64873;50.102;14.434;2023-04-01T10:53:26;1.65;;;0.90;;
76127;SDS011;64873;50.102;14.434;2023-04-01T11:15:52;1.45;;;0.77;;
76127;SDS011;64873;50.102;14.434;2023-04-01T11:29:36;2.17;;;0.77;;
76127;SDS011;64873;50.102;14.434;2023-04-01T11:56:58;1.95;;;0.90;;
76127;SDS011;64873;50.102;14.434;2023-04-01T12:15:54;1.67;;;0.80;;
76127;SDS011;64873;50.102;14.434;2023-04-01T12:18:32;2.67;;;0.70;;
76127;SDS011;64873;50.102;14.434;2023-04-01T12:21:14;2.33;;;0.70;;
76127;SDS011;64873;50.102;14.434;2023-04-01T12:23:59;2.22;;;0.80;;
76127;SDS011;64873;50.102;14.434;2023-04-01T12:32:31;2.70;;;0.80;;
76127;SDS011;64873;50.102;14.434;2023-04-01T12:40:56;1.48;;;0.68;;
76127;SDS011;64873;50.102;14.434;2023-04-01T13:03:12;1.80;;;0.70;;
76127;SDS011;64873;50.102;14.434;2023-04-01T13:12:01;1.88;;;0.77;;
76127;SDS011;64873;50.102;14.434;2023-04-01T13:14:16;2.75;;;0.75;;
76127;SDS011;64873;50.102;14.434;2023-04-01T13:22:48;1.55;;;0.82;;
76127;SDS011;64873;50.102;14.434;2023-04-01T13:32:47;3.85;;;0.70;;
76127;SDS011;64873;50.102;14.434;2023-04-01T13:35:18;3.15;;;1.02;;
76127;SDS011;64873;50.102;14.434;2023-04-01T13:38:00;2.40;;;1.10;;
76127;SDS011;64873;50.102;14.434;2023-04-01T13:43:31;6.50;;;0.80;;
76127;SDS011;64873;50.102;14.434;2023-04-01T13:48:36;2.13;;;1.15;;
76127;SDS011;64873;50.102;14.434;2023-04-01T14:02:49;1.98;;;0.77;;
76127;SDS011;64873;50.102;14.434;2023-04-01T14:20:41;1.77;;;0.73;;
76127;SDS011;64873;50.102;14.434;2023-04-01T14:28:47;2.50;;;0.85;;
76127;SDS011;64873;50.102;14.434;2023-04-01T14:31:30;1.38;;;0.82;;
76127;SDS011;64873;50.102;14.434;2023-04-01T14:50:24;2.35;;;1.02;;
76127;SDS011;64873;50.102;14.434;2023-04-01T14:52:56;2.78;;;1.13;;
76127;SDS011;64873;50.102;14.434;2023-04-01T14:55:42;2.03;;;0.70;;
76127;SDS011;64873;50.102;14.434;2023-04-01T14:58:15;1.77;;;0.82;;
76127;SDS011;64873;50.102;14.434;2023-04-01T15:12:29;1.58;;;0.73;;
76127;SDS011;64873;50.102;14.434;2023-04-01T15:31:50;2.03;;;1.00;;
76127;SDS011;64873;50.102;14.434;2023-04-01T15:37:28;1.88;;;0.80;;
76127;SDS011;64873;50.102;14.434;2023-04-01T15:40:21;1.70;;;0.77;;
76127;SDS011;64873;50.102;14.434;2023-04-01T15:42:59;3.35;;;1.00;;
76127;SDS011;64873;50.102;14.434;2023-04-01T15:45:31;1.83;;;0.90;;
76127;SDS011;64873;50.102;14.434;2023-04-01T15:48:18;4.65;;;0.93;;
76127;SDS011;64873;50.102;14.434;2023-04-01T15:53:48;2.05;;;0.75;;
76127;SDS011;64873;50.102;14.434;2023-04-01T15:56:36;1.25;;;0.65;;
76127;SDS011;64873;50.102;14.434;2023-04-01T15:59:20;4.07;;;2.35;;
76127;SDS011;64873;50.102;14.434;2023-04-01T16:02:18;1.67;;;1.10;;
76127;SDS011;64873;50.102;14.434;2023-04-01T16:04:57;2.40;;;0.95;;
76127;SDS011;64873;50.102;14.434;2023-04-01T16:23:57;1.50;;;0.80;;
76127;SDS011;64873;50.102;14.434;2023-04-01T16:29:29;1.20;;;0.80;;
76127;SDS011;64873;50.102;14.434;2023-04-01T16:32:17;1.67;;;0.90;;
76127;SDS011;64873;50.102;14.434;2023-04-01T16:37:34;1.88;;;0.68;;
76127;SDS011;64873;50.102;14.434;2023-04-01T16:43:05;2.67;;;0.80;;
76127;SDS011;64873;50.102;14.434;2023-04-01T16:45:38;2.30;;;0.80;;
76127;SDS011;64873;50.102;14.434;2023-04-01T16:55:48;3.95;;;1.00;;
76127;SDS011;64873;50.102;14.434;2023-04-01T16:58:18;1.38;;;0.70;;
76127;SDS011;64873;50.102;14.434;2023-04-01T17:01:07;1.00;;;0.63;;
76127;SDS011;64873;50.102;14.434;2023-04-01T17:06:23;1.08;;;0.60;;
76127;SDS011;64873;50.102;14.434;2023-04-01T17:20:35;4.95;;;1.65;;
76127;SDS011;64873;50.102;14.434;2023-04-01T17:28:26;5.57;;;1.15;;
76127;SDS011;64873;50.102;14.434;2023-04-01T17:33:48;3.75;;;1.10;;
76127;SDS011;64873;50.102;14.434;2023-04-01T17:36:35;7.18;;;1.00;;
76127;SDS011;64873;50.102;14.434;2023-04-01T17:47:41;2.85;;;0.90;;
76127;SDS011;64873;50.102;14.434;2023-04-01T17:50:22;3.33;;;1.45;;
76127;SDS011;64873;50.102;14.434;2023-04-01T17:58:49;3.83;;;0.82;;
76127;SDS011;64873;50.102;14.434;2023-04-01T18:09:44;2.50;;;1.30;;
76127;SDS011;64873;50.102;14.434;2023-04-01T18:15:07;2.53;;;1.30;;
76127;SDS011;64873;50.102;14.434;2023-04-01T18:20:23;4.22;;;2.00;;
76127;SDS011;64873;50.102;14.434;2023-04-01T18:22:58;3.55;;;1.70;;
76127;SDS011;64873;50.102;14.434;2023-04-01T18:25:35;3.70;;;1.60;;
76127;SDS011;64873;50.102;14.434;2023-04-01T18:28:14;3.25;;;1.48;;
76127;SDS011;64873;50.102;14.434;2023-04-01T18:30:50;2.47;;;1.30;;
76127;SDS011;64873;50.102;14.434;2023-04-01T18:35:56;1.88;;;1.02;;
76127;SDS011;64873;50.102;14.434;2023-04-01T18:38:40;2.13;;;1.00;;
76127;SDS011;64873;50.102;14.434;2023-04-01T18:49:19;1.88;;;1.20;;
76127;SDS011;64873;50.102;14.434;2023-04-01T18:51:53;2.53;;;1.40;;
76127;SDS011;64873;50.102;14.434;2023-04-01T18:56:51;2.22;;;1.27;;
76127;SDS011;64873;50.102;14.434;2023-04-01T18:59:49;2.90;;;1.42;;
76127;SDS011;64873;50.102;14.434;2023-04-01T19:05:17;3.30;;;1.42;;
76127;SDS011;64873;50.102;14.434;2023-04-01T19:12:48;3.20;;;1.50;;
76127;SDS011;64873;50.102;14.434;2023-04-01T19:20:32;3.70;;;1.58;;
76127;SDS011;64873;50.102;14.434;2023-04-01T19:23:05;3.45;;;1.58;;
76127;SDS011;64873;50.102;14.434;2023-04-01T19:25:54;4.13;;;2.25;;
76127;SDS011;64873;50.102;14.434;2023-04-01T19:28:26;5.85;;;2.28;;
76127;SDS011;64873;50.102;14.434;2023-04-01T19:31:20;3.42;;;1.42;;
76127;SDS011;64873;50.102;14.434;2023-04-01T19:52:29;4.07;;;1.73;;
76127;SDS011;64873;50.102;14.434;2023-04-01T19:55:02;2.03;;;1.38;;
76127;SDS011;64873;50.102;14.434;2023-04-01T20:03:15;2.03;;;1.33;;
76127;SDS011;64873;50.102;14.434;2023-04-01T20:05:55;3.65;;;1.70;;
76127;SDS011;64873;50.102;14.434;2023-04-01T20:11:26;3.78;;;1.63;;
76127;SDS011;64873;50.102;14.434;2023-04-01T20:14:43;3.67;;;1.67;;
76127;SDS011;64873;50.102;14.434;2023-04-01T20:17:38;3.55;;;1.80;;
76127;SDS011;64873;50.102;14.434;2023-04-01T20:28:20;4.75;;;1.88;;
76127;SDS011;64873;50.102;14.434;2023-04-01T20:33:26;3.08;;;1.50;;
76127;SDS011;64873;50.102;14.434;2023-04-01T20:44:19;3.92;;;1.80;;
76127;SDS011;64873;50.102;14.434;2023-04-01T20:52:42;2.88;;;1.67;;
76127;SDS011;64873;50.102;14.434;2023-04-01T21:15:03;3.20;;;1.73;;
76127;SDS011;64873;50.102;14.434;2023-04-01T21:17:54;4.00;;;1.80;;
76127;SDS011;64873;50.102;14.434;2023-04-01T21:20:45;4.60;;;2.25;;
76127;SDS011;64873;50.102;14.434;2023-04-01T21:26:11;6.15;;;2.45;;
76127;SDS011;64873;50.102;14.434;2023-04-01T21:39:56;4.45;;;2.20;;
76127;SDS011;64873;50.102;14.434;2023-04-01T21:45:03;3.38;;;1.88;;
76127;SDS011;64873;50.102;14.434;2023-04-01T21:48:00;5.78;;;2.53;;
76127;SDS011;64873;50.102;14.434;2023-04-01T21:51:02;3.33;;;1.85;;
76127;SDS011;64873;50.102;14.434;2023-04-01T21:56:33;3.35;;;1.90;;
76127;SDS011;64873;50.102;14.434;2023-04-01T22:05:39;4.75;;;2.63;;
76127;SDS011;64873;50.102;14.434;2023-04-01T22:14:12;2.88;;;1.60;;
76127;SDS011;64873;50.102;14.434;2023-04-01T22:17:07;3.22;;;1.80;;
76127;SDS011;64873;50.102;14.434;2023-04-01T22:22:25;3.38;;;1.70;;
76127;SDS011;64873;50.102;14.434;2023-04-01T22:27:32;3.20;;;1.80;;
76127;SDS011;64873;50.102;14.434;2023-04-01T22:32:49;2.67;;;1.58;;
76127;SDS011;64873;50.102;14.434;2023-04-01T22:40:57;4.68;;;1.70;;
76127;SDS011;64873;50.102;14.434;2023-04-01T22:43:40;3.03;;;1.63;;
76127;SDS011;64873;50.102;14.434;2023-04-01T22:48:47;3.28;;;1.83;;
76127;SDS011;64873;50.102;14.434;2023-04-01T22:56:53;3.00;;;1.38;;
76127;SDS011;64873;50.102;14.434;2023-04-01T22:59:29;2.72;;;1.58;;
76127;SDS011;64873;50.102;14.434;2023-04-01T23:02:22;2.70;;;1.38;;
76127;SDS011;64873;50.102;14.434;2023-04-01T23:04:54;3.60;;;1.70;;
76127;SDS011;64873;50.102;14.434;2023-04-01T23:07:30;2.83;;;1.50;;
76127;SDS011;64873;50.102;14.434;2023-04-01T23:10:15;3.15;;;1.70;;
76127;SDS011;64873;50.102;14.434;2023-04-01T23:13:01;2.13;;;1.40;;
76127;SDS011;64873;50.102;14.434;2023-04-01T23:15:29;3.97;;;1.95;;
76127;SDS011;64873;50.102;14.434;2023-04-01T23:21:13;2.83;;;1.60;;
76127;SDS011;64873;50.102;14.434;2023-04-01T23:26:53;2.50;;;1.20;;
76127;SDS011;64873;50.102;14.434;2023-04-01T23:29:24;4.00;;;1.30;;
76127;SDS011;64873;50.102;14.434;2023-04-01T23:31:57;2.75;;;1.13;;
76127;SDS011;64873;50.102;14.434;2023-04-01T23:37:00;2.72;;;1.40;;
76127;SDS011;64873;50.102;14.434;2023-04-01T23:39:30;2.20;;;1.25;;
76127;SDS011;64873;50.102;14.434;2023-04-01T23:42:29;2.63;;;1.40;;
76127;SDS011;64873;50.102;14.434;2023-04-01T23:45:01;2.53;;;1.20;;
76127;SDS011;64873;50.102;14.434;2023-04-01T23:47:31;3.88;;;1.30;;
76127;SDS011;64873;50.102;14.434;2023-04-01T23:52:40;4.13;;;1.50;;
76127;SDS011;64873;50.102;14.434;2023-04-01T23:55:17;2.15;;;1.20;;
